sensor_id;sensor_type;location;lat;lon;timestamp;P1;durP1;ratioP1;P2;durP2;ratioP2
32080;SDS011;18593;51.426;7.030;2023-05-21T00:00:32;18.67;;;12.90;;
32080;SDS011;18593;51.426;7.030;2023-05-21T00:02:59;20.02;;;12.73;;
32080;SDS011;18593;51.426;7.030;2023-05-21T00:05:27;17.70;;;12.70;;
32080;SDS011;18593;51.426;7.030;2023-05-21T00:07:55;19.67;;;12.35;;
32080;SDS011;18593;51.426;7.030;2023-05-21T00:10:22;22.25;;;12.77;;
32080;SDS011;18593;51.426;7.030;2023-05-21T00:12:49;20.08;;;12.73;;
32080;SDS011;18593;51.426;7.030;2023-05-21T00:15:17;17.27;;;12.13;;
32080;SDS011;18593;51.426;7.030;2023-05-21T00:17:44;19.10;;;13.02;;
32080;SDS011;18593;51.426;7.030;2023-05-21T00:20:11;17.27;;;12.20;;
32080;SDS011;18593;51.426;7.030;2023-05-21T00:22:41;19.48;;;12.18;;
32080;SDS011;18593;51.426;7.030;2023-05-21T00:25:09;18.15;;;11.63;;
32080;SDS011;18593;51.426;7.030;2023-05-21T00:27:37;16.45;;;11.75;;
32080;SDS011;18593;51.426;7.030;2023-05-21T00:30:04;19.27;;;12.25;;
32080;SDS011;18593;51.426;7.030;2023-05-21T00:32:33;16.50;;;11.85;;
32080;SDS011;18593;51.426;7.030;2023-05-21T00:35:00;25.35;;;12.55;;
32080;SDS011;18593;51.426;7.030;2023-05-21T00:37:28;15.82;;;11.32;;
32080;SDS011;18593;51.426;7.030;2023-05-21T00:39:59;15.27;;;11.52;;
32080;SDS011;18593;51.426;7.030;2023-05-21T00:42:29;16.55;;;11.50;;
32080;SDS011;18593;51.426;7.030;2023-05-21T00:44:56;18.10;;;12.40;;
32080;SDS011;18593;51.426;7.030;2023-05-21T00:47:24;17.75;;;11.27;;
32080;SDS011;18593;51.426;7.030;2023-05-21T00:49:53;16.05;;;11.13;;
32080;SDS011;18593;51.426;7.030;2023-05-21T00:52:21;21.67;;;11.35;;
32080;SDS011;18593;51.426;7.030;2023-05-21T00:54:51;14.98;;;11.02;;
32080;SDS011;18593;51.426;7.030;2023-05-21T00:57:20;15.38;;;10.32;;
32080;SDS011;18593;51.426;7.030;2023-05-21T00:59:51;14.98;;;10.55;;
32080;SDS011;18593;51.426;7.030;2023-05-21T01:02:19;19.25;;;10.75;;
32080;SDS011;18593;51.426;7.030;2023-05-21T01:04:48;16.52;;;10.90;;
32080;SDS011;18593;51.426;7.030;2023-05-21T01:07:16;14.52;;;10.45;;
32080;SDS011;18593;51.426;7.030;2023-05-21T01:09:43;17.98;;;10.63;;
32080;SDS011;18593;51.426;7.030;2023-05-21T01:12:11;16.02;;;10.15;;
32080;SDS011;18593;51.426;7.030;2023-05-21T01:14:41;16.08;;;10.32;;
32080;SDS011;18593;51.426;7.030;2023-05-21T01:17:09;16.10;;;10.30;;
32080;SDS011;18593;51.426;7.030;2023-05-21T01:19:37;16.70;;;10.48;;
32080;SDS011;18593;51.426;7.030;2023-05-21T01:22:05;16.50;;;10.35;;
32080;SDS011;18593;51.426;7.030;2023-05-21T01:24:35;15.73;;;9.88;;
32080;SDS011;18593;51.426;7.030;2023-05-21T01:27:04;15.00;;;9.68;;
32080;SDS011;18593;51.426;7.030;2023-05-21T01:29:31;13.80;;;9.77;;
32080;SDS011;18593;51.426;7.030;2023-05-21T01:32:01;13.85;;;9.30;;
32080;SDS011;18593;51.426;7.030;2023-05-21T01:34:41;15.63;;;10.20;;
32080;SDS011;18593;51.426;7.030;2023-05-21T01:37:26;13.75;;;9.63;;
32080;SDS011;18593;51.426;7.030;2023-05-21T01:40:03;14.80;;;9.48;;
32080;SDS011;18593;51.426;7.030;2023-05-21T01:42:38;15.55;;;9.73;;
32080;SDS011;18593;51.426;7.030;2023-05-21T01:45:08;14.32;;;9.50;;
32080;SDS011;18593;51.426;7.030;2023-05-21T01:47:36;13.13;;;9.80;;
32080;SDS011;18593;51.426;7.030;2023-05-21T01:50:06;12.63;;;8.27;;
32080;SDS011;18593;51.426;7.030;2023-05-21T01:52:36;13.87;;;9.67;;
32080;SDS011;18593;51.426;7.030;2023-05-21T01:55:05;13.88;;;8.75;;
32080;SDS011;18593;51.426;7.030;2023-05-21T01:57:33;14.30;;;8.82;;
32080;SDS011;18593;51.426;7.030;2023-05-21T02:00:00;13.55;;;8.82;;
32080;SDS011;18593;51.426;7.030;2023-05-21T02:02:40;12.45;;;8.93;;
32080;SDS011;18593;51.426;7.030;2023-05-21T02:05:08;14.07;;;9.07;;
32080;SDS011;18593;51.426;7.030;2023-05-21T02:07:35;12.80;;;8.60;;
32080;SDS011;18593;51.426;7.030;2023-05-21T02:10:06;12.95;;;8.70;;
32080;SDS011;18593;51.426;7.030;2023-05-21T02:12:34;10.93;;;8.05;;
32080;SDS011;18593;51.426;7.030;2023-05-21T02:15:01;14.68;;;8.68;;
32080;SDS011;18593;51.426;7.030;2023-05-21T02:17:30;12.07;;;8.57;;
32080;SDS011;18593;51.426;7.030;2023-05-21T02:19:58;13.00;;;8.43;;
32080;SDS011;18593;51.426;7.030;2023-05-21T02:22:35;13.00;;;8.63;;
32080;SDS011;18593;51.426;7.030;2023-05-21T02:25:03;15.43;;;8.48;;
32080;SDS011;18593;51.426;7.030;2023-05-21T02:27:34;13.73;;;8.73;;
32080;SDS011;18593;51.426;7.030;2023-05-21T02:30:02;10.63;;;7.88;;
32080;SDS011;18593;51.426;7.030;2023-05-21T02:32:32;14.43;;;8.17;;
32080;SDS011;18593;51.426;7.030;2023-05-21T02:35:01;11.82;;;8.10;;
32080;SDS011;18593;51.426;7.030;2023-05-21T02:37:29;12.10;;;8.20;;
32080;SDS011;18593;51.426;7.030;2023-05-21T02:39:59;13.52;;;8.13;;
32080;SDS011;18593;51.426;7.030;2023-05-21T02:42:29;13.02;;;8.50;;
32080;SDS011;18593;51.426;7.030;2023-05-21T02:44:57;12.30;;;8.65;;
32080;SDS011;18593;51.426;7.030;2023-05-21T02:47:24;10.70;;;7.97;;
32080;SDS011;18593;51.426;7.030;2023-05-21T02:49:52;13.48;;;8.05;;
32080;SDS011;18593;51.426;7.030;2023-05-21T02:52:20;12.48;;;8.15;;
32080;SDS011;18593;51.426;7.030;2023-05-21T02:54:48;14.50;;;8.43;;
32080;SDS011;18593;51.426;7.030;2023-05-21T02:57:15;13.48;;;8.20;;
32080;SDS011;18593;51.426;7.030;2023-05-21T02:59:44;12.85;;;7.40;;
32080;SDS011;18593;51.426;7.030;2023-05-21T03:02:11;12.15;;;8.10;;
32080;SDS011;18593;51.426;7.030;2023-05-21T03:04:38;12.70;;;7.93;;
32080;SDS011;18593;51.426;7.030;2023-05-21T03:07:10;10.57;;;8.00;;
32080;SDS011;18593;51.426;7.030;2023-05-21T03:09:39;10.25;;;7.35;;
32080;SDS011;18593;51.426;7.030;2023-05-21T03:12:07;12.32;;;7.90;;
32080;SDS011;18593;51.426;7.030;2023-05-21T03:14:35;13.35;;;8.50;;
32080;SDS011;18593;51.426;7.030;2023-05-21T03:17:04;10.35;;;8.07;;
32080;SDS011;18593;51.426;7.030;2023-05-21T03:19:32;12.73;;;7.47;;
32080;SDS011;18593;51.426;7.030;2023-05-21T03:22:01;11.60;;;7.00;;
32080;SDS011;18593;51.426;7.030;2023-05-21T03:24:32;11.77;;;8.55;;
32080;SDS011;18593;51.426;7.030;2023-05-21T03:27:02;12.27;;;7.95;;
32080;SDS011;18593;51.426;7.030;2023-05-21T03:29:31;11.25;;;7.80;;
32080;SDS011;18593;51.426;7.030;2023-05-21T03:31:59;12.00;;;8.10;;
32080;SDS011;18593;51.426;7.030;2023-05-21T03:34:30;12.15;;;7.82;;
32080;SDS011;18593;51.426;7.030;2023-05-21T03:36:58;13.95;;;7.85;;
32080;SDS011;18593;51.426;7.030;2023-05-21T03:39:26;12.00;;;7.95;;
32080;SDS011;18593;51.426;7.030;2023-05-21T03:41:54;10.88;;;8.13;;
32080;SDS011;18593;51.426;7.030;2023-05-21T03:44:31;11.32;;;7.43;;
32080;SDS011;18593;51.426;7.030;2023-05-21T03:47:11;11.65;;;8.00;;
32080;SDS011;18593;51.426;7.030;2023-05-21T03:49:39;9.65;;;7.22;;
32080;SDS011;18593;51.426;7.030;2023-05-21T03:52:07;11.00;;;8.10;;
32080;SDS011;18593;51.426;7.030;2023-05-21T03:54:34;11.57;;;7.88;;
32080;SDS011;18593;51.426;7.030;2023-05-21T03:57:05;9.82;;;7.85;;
32080;SDS011;18593;51.426;7.030;2023-05-21T03:59:33;10.05;;;7.40;;
32080;SDS011;18593;51.426;7.030;2023-05-21T04:02:00;12.82;;;7.50;;
32080;SDS011;18593;51.426;7.030;2023-05-21T04:04:28;11.93;;;7.93;;
32080;SDS011;18593;51.426;7.030;2023-05-21T04:06:59;11.23;;;8.13;;
32080;SDS011;18593;51.426;7.030;2023-05-21T04:09:28;11.35;;;7.90;;
32080;SDS011;18593;51.426;7.030;2023-05-21T04:11:56;10.45;;;7.60;;
32080;SDS011;18593;51.426;7.030;2023-05-21T04:14:23;12.30;;;7.57;;
32080;SDS011;18593;51.426;7.030;2023-05-21T04:16:51;12.52;;;7.97;;
32080;SDS011;18593;51.426;7.030;2023-05-21T04:19:19;13.35;;;8.10;;
32080;SDS011;18593;51.426;7.030;2023-05-21T04:21:47;11.85;;;8.15;;
32080;SDS011;18593;51.426;7.030;2023-05-21T04:24:16;11.38;;;8.52;;
32080;SDS011;18593;51.426;7.030;2023-05-21T04:26:52;11.88;;;8.02;;
32080;SDS011;18593;51.426;7.030;2023-05-21T04:29:20;11.82;;;7.97;;
32080;SDS011;18593;51.426;7.030;2023-05-21T04:31:48;12.93;;;8.25;;
32080;SDS011;18593;51.426;7.030;2023-05-21T04:34:15;14.05;;;8.75;;
32080;SDS011;18593;51.426;7.030;2023-05-21T04:36:43;11.43;;;8.27;;
32080;SDS011;18593;51.426;7.030;2023-05-21T04:39:11;10.30;;;7.50;;
32080;SDS011;18593;51.426;7.030;2023-05-21T04:41:41;13.30;;;8.65;;
32080;SDS011;18593;51.426;7.030;2023-05-21T04:44:08;10.85;;;7.80;;
32080;SDS011;18593;51.426;7.030;2023-05-21T04:46:39;14.03;;;9.70;;
32080;SDS011;18593;51.426;7.030;2023-05-21T04:49:06;12.95;;;8.30;;
32080;SDS011;18593;51.426;7.030;2023-05-21T04:51:34;12.05;;;7.97;;
32080;SDS011;18593;51.426;7.030;2023-05-21T04:54:02;13.65;;;8.18;;
32080;SDS011;18593;51.426;7.030;2023-05-21T04:56:30;13.13;;;8.40;;
32080;SDS011;18593;51.426;7.030;2023-05-21T04:58:58;11.93;;;8.48;;
32080;SDS011;18593;51.426;7.030;2023-05-21T05:01:25;11.57;;;8.35;;
32080;SDS011;18593;51.426;7.030;2023-05-21T05:03:53;12.20;;;8.57;;
32080;SDS011;18593;51.426;7.030;2023-05-21T05:06:20;12.75;;;8.55;;
32080;SDS011;18593;51.426;7.030;2023-05-21T05:08:50;12.23;;;9.05;;
32080;SDS011;18593;51.426;7.030;2023-05-21T05:11:18;12.75;;;8.60;;
32080;SDS011;18593;51.426;7.030;2023-05-21T05:13:46;13.60;;;9.07;;
32080;SDS011;18593;51.426;7.030;2023-05-21T05:16:15;13.38;;;10.15;;
32080;SDS011;18593;51.426;7.030;2023-05-21T05:18:49;13.18;;;9.50;;
32080;SDS011;18593;51.426;7.030;2023-05-21T05:21:17;14.55;;;9.45;;
32080;SDS011;18593;51.426;7.030;2023-05-21T05:23:44;13.10;;;9.15;;
32080;SDS011;18593;51.426;7.030;2023-05-21T05:26:11;14.65;;;9.80;;
32080;SDS011;18593;51.426;7.030;2023-05-21T05:28:39;14.18;;;9.90;;
32080;SDS011;18593;51.426;7.030;2023-05-21T05:31:06;15.52;;;9.77;;
32080;SDS011;18593;51.426;7.030;2023-05-21T05:33:35;14.75;;;9.38;;
32080;SDS011;18593;51.426;7.030;2023-05-21T05:36:02;16.00;;;9.77;;
32080;SDS011;18593;51.426;7.030;2023-05-21T05:38:30;15.35;;;9.93;;
32080;SDS011;18593;51.426;7.030;2023-05-21T05:40:59;13.15;;;9.85;;
32080;SDS011;18593;51.426;7.030;2023-05-21T05:43:26;13.13;;;10.38;;
32080;SDS011;18593;51.426;7.030;2023-05-21T05:45:54;15.85;;;10.55;;
32080;SDS011;18593;51.426;7.030;2023-05-21T05:48:22;14.05;;;10.27;;
32080;SDS011;18593;51.426;7.030;2023-05-21T05:50:51;13.32;;;9.70;;
32080;SDS011;18593;51.426;7.030;2023-05-21T05:53:19;14.63;;;10.00;;
32080;SDS011;18593;51.426;7.030;2023-05-21T05:55:46;14.98;;;9.90;;
32080;SDS011;18593;51.426;7.030;2023-05-21T05:58:13;14.80;;;10.65;;
32080;SDS011;18593;51.426;7.030;2023-05-21T06:00:51;14.88;;;9.77;;
32080;SDS011;18593;51.426;7.030;2023-05-21T06:03:19;12.75;;;9.63;;
32080;SDS011;18593;51.426;7.030;2023-05-21T06:05:46;12.32;;;9.40;;
32080;SDS011;18593;51.426;7.030;2023-05-21T06:08:15;14.32;;;9.75;;
32080;SDS011;18593;51.426;7.030;2023-05-21T06:10:44;13.77;;;10.05;;
32080;SDS011;18593;51.426;7.030;2023-05-21T06:13:11;11.98;;;9.40;;
32080;SDS011;18593;51.426;7.030;2023-05-21T06:15:38;14.00;;;9.73;;
32080;SDS011;18593;51.426;7.030;2023-05-21T06:18:07;15.25;;;9.73;;
32080;SDS011;18593;51.426;7.030;2023-05-21T06:20:35;15.25;;;10.27;;
32080;SDS011;18593;51.426;7.030;2023-05-21T06:23:03;14.75;;;9.80;;
32080;SDS011;18593;51.426;7.030;2023-05-21T06:25:32;12.82;;;9.52;;
32080;SDS011;18593;51.426;7.030;2023-05-21T06:28:00;14.73;;;9.82;;
32080;SDS011;18593;51.426;7.030;2023-05-21T06:30:28;13.00;;;10.13;;
32080;SDS011;18593;51.426;7.030;2023-05-21T06:32:57;15.05;;;9.90;;
32080;SDS011;18593;51.426;7.030;2023-05-21T06:35:25;18.35;;;10.45;;
32080;SDS011;18593;51.426;7.030;2023-05-21T06:37:52;13.85;;;10.10;;
32080;SDS011;18593;51.426;7.030;2023-05-21T06:40:20;16.67;;;10.05;;
32080;SDS011;18593;51.426;7.030;2023-05-21T06:42:52;15.43;;;10.25;;
32080;SDS011;18593;51.426;7.030;2023-05-21T06:45:52;14.38;;;10.43;;
32080;SDS011;18593;51.426;7.030;2023-05-21T06:48:35;14.10;;;10.38;;
32080;SDS011;18593;51.426;7.030;2023-05-21T06:51:02;15.60;;;10.50;;
32080;SDS011;18593;51.426;7.030;2023-05-21T06:53:29;14.07;;;10.75;;
32080;SDS011;18593;51.426;7.030;2023-05-21T06:55:57;15.70;;;10.80;;
32080;SDS011;18593;51.426;7.030;2023-05-21T06:58:42;13.00;;;10.43;;
32080;SDS011;18593;51.426;7.030;2023-05-21T07:01:10;15.65;;;10.60;;
32080;SDS011;18593;51.426;7.030;2023-05-21T07:03:37;15.30;;;10.88;;
32080;SDS011;18593;51.426;7.030;2023-05-21T07:06:05;15.93;;;11.13;;
32080;SDS011;18593;51.426;7.030;2023-05-21T07:08:32;16.00;;;11.00;;
32080;SDS011;18593;51.426;7.030;2023-05-21T07:11:00;17.17;;;12.25;;
32080;SDS011;18593;51.426;7.030;2023-05-21T07:13:28;16.65;;;11.00;;
32080;SDS011;18593;51.426;7.030;2023-05-21T07:15:57;15.60;;;11.60;;
32080;SDS011;18593;51.426;7.030;2023-05-21T07:18:25;15.48;;;11.02;;
32080;SDS011;18593;51.426;7.030;2023-05-21T07:20:53;19.92;;;11.68;;
32080;SDS011;18593;51.426;7.030;2023-05-21T07:23:21;15.82;;;11.25;;
32080;SDS011;18593;51.426;7.030;2023-05-21T07:25:48;17.23;;;11.63;;
32080;SDS011;18593;51.426;7.030;2023-05-21T07:28:17;15.20;;;11.07;;
32080;SDS011;18593;51.426;7.030;2023-05-21T07:30:44;17.83;;;11.70;;
32080;SDS011;18593;51.426;7.030;2023-05-21T07:33:17;14.93;;;10.57;;
32080;SDS011;18593;51.426;7.030;2023-05-21T07:38:14;16.52;;;11.55;;
32080;SDS011;18593;51.426;7.030;2023-05-21T07:40:42;24.73;;;12.00;;
32080;SDS011;18593;51.426;7.030;2023-05-21T07:43:10;20.77;;;12.10;;
32080;SDS011;18593;51.426;7.030;2023-05-21T07:45:39;17.33;;;10.98;;
32080;SDS011;18593;51.426;7.030;2023-05-21T07:48:06;17.90;;;11.98;;
32080;SDS011;18593;51.426;7.030;2023-05-21T07:50:39;17.52;;;11.45;;
32080;SDS011;18593;51.426;7.030;2023-05-21T07:53:06;16.10;;;12.00;;
32080;SDS011;18593;51.426;7.030;2023-05-21T07:55:33;16.92;;;11.38;;
32080;SDS011;18593;51.426;7.030;2023-05-21T07:58:01;18.85;;;12.63;;
32080;SDS011;18593;51.426;7.030;2023-05-21T08:00:34;17.63;;;11.98;;
32080;SDS011;18593;51.426;7.030;2023-05-21T08:03:12;17.48;;;12.65;;
32080;SDS011;18593;51.426;7.030;2023-05-21T08:05:43;16.08;;;12.13;;
32080;SDS011;18593;51.426;7.030;2023-05-21T08:08:13;19.80;;;12.50;;
32080;SDS011;18593;51.426;7.030;2023-05-21T08:10:43;16.67;;;12.68;;
32080;SDS011;18593;51.426;7.030;2023-05-21T08:13:12;18.02;;;13.10;;
32080;SDS011;18593;51.426;7.030;2023-05-21T08:15:40;18.15;;;12.02;;
32080;SDS011;18593;51.426;7.030;2023-05-21T08:18:08;21.92;;;13.73;;
32080;SDS011;18593;51.426;7.030;2023-05-21T08:20:35;20.52;;;13.40;;
32080;SDS011;18593;51.426;7.030;2023-05-21T08:23:04;18.77;;;13.30;;
32080;SDS011;18593;51.426;7.030;2023-05-21T08:25:38;16.25;;;12.73;;
32080;SDS011;18593;51.426;7.030;2023-05-21T08:28:06;18.88;;;13.20;;
32080;SDS011;18593;51.426;7.030;2023-05-21T08:30:33;17.27;;;12.95;;
32080;SDS011;18593;51.426;7.030;2023-05-21T08:33:01;19.40;;;14.07;;
32080;SDS011;18593;51.426;7.030;2023-05-21T08:35:31;16.20;;;12.32;;
32080;SDS011;18593;51.426;7.030;2023-05-21T08:38:11;20.00;;;14.02;;
32080;SDS011;18593;51.426;7.030;2023-05-21T08:40:50;16.85;;;12.75;;
32080;SDS011;18593;51.426;7.030;2023-05-21T08:43:20;19.27;;;14.38;;
32080;SDS011;18593;51.426;7.030;2023-05-21T08:45:50;19.00;;;13.63;;
32080;SDS011;18593;51.426;7.030;2023-05-21T08:48:22;18.08;;;13.77;;
32080;SDS011;18593;51.426;7.030;2023-05-21T08:50:50;19.13;;;14.95;;
32080;SDS011;18593;51.426;7.030;2023-05-21T08:53:25;19.50;;;14.23;;
32080;SDS011;18593;51.426;7.030;2023-05-21T08:55:53;16.60;;;13.85;;
32080;SDS011;18593;51.426;7.030;2023-05-21T08:58:23;21.63;;;14.90;;
32080;SDS011;18593;51.426;7.030;2023-05-21T09:00:52;19.33;;;13.60;;
32080;SDS011;18593;51.426;7.030;2023-05-21T09:03:24;17.73;;;13.35;;
32080;SDS011;18593;51.426;7.030;2023-05-21T09:05:53;20.30;;;13.80;;
32080;SDS011;18593;51.426;7.030;2023-05-21T09:08:23;24.00;;;15.25;;
32080;SDS011;18593;51.426;7.030;2023-05-21T09:11:00;21.65;;;15.55;;
32080;SDS011;18593;51.426;7.030;2023-05-21T09:13:33;20.08;;;15.40;;
32080;SDS011;18593;51.426;7.030;2023-05-21T09:16:07;18.83;;;14.70;;
32080;SDS011;18593;51.426;7.030;2023-05-21T09:18:36;19.55;;;14.45;;
32080;SDS011;18593;51.426;7.030;2023-05-21T09:21:24;20.15;;;15.07;;
32080;SDS011;18593;51.426;7.030;2023-05-21T09:23:58;21.88;;;15.98;;
32080;SDS011;18593;51.426;7.030;2023-05-21T09:26:26;19.50;;;15.20;;
32080;SDS011;18593;51.426;7.030;2023-05-21T09:28:58;19.00;;;15.68;;
32080;SDS011;18593;51.426;7.030;2023-05-21T09:31:26;20.80;;;14.57;;
32080;SDS011;18593;51.426;7.030;2023-05-21T09:33:54;24.63;;;15.48;;
32080;SDS011;18593;51.426;7.030;2023-05-21T09:36:23;20.90;;;15.63;;
32080;SDS011;18593;51.426;7.030;2023-05-21T09:38:53;20.33;;;14.63;;
32080;SDS011;18593;51.426;7.030;2023-05-21T09:41:31;22.10;;;16.08;;
32080;SDS011;18593;51.426;7.030;2023-05-21T09:44:00;20.33;;;16.13;;
32080;SDS011;18593;51.426;7.030;2023-05-21T09:46:36;20.95;;;16.50;;
32080;SDS011;18593;51.426;7.030;2023-05-21T09:49:05;20.35;;;16.60;;
32080;SDS011;18593;51.426;7.030;2023-05-21T09:51:32;23.00;;;17.10;;
32080;SDS011;18593;51.426;7.030;2023-05-21T09:54:03;22.25;;;16.85;;
32080;SDS011;18593;51.426;7.030;2023-05-21T09:56:32;20.77;;;16.70;;
32080;SDS011;18593;51.426;7.030;2023-05-21T09:59:01;20.08;;;14.98;;
32080;SDS011;18593;51.426;7.030;2023-05-21T10:01:29;25.20;;;16.35;;
32080;SDS011;18593;51.426;7.030;2023-05-21T10:03:58;17.92;;;10.50;;
32080;SDS011;18593;51.426;7.030;2023-05-21T10:06:33;25.40;;;17.08;;
32080;SDS011;18593;51.426;7.030;2023-05-21T10:09:08;23.02;;;15.27;;
32080;SDS011;18593;51.426;7.030;2023-05-21T10:11:38;25.63;;;16.08;;
32080;SDS011;18593;51.426;7.030;2023-05-21T10:14:10;23.25;;;15.93;;
32080;SDS011;18593;51.426;7.030;2023-05-21T10:16:41;19.00;;;14.48;;
32080;SDS011;18593;51.426;7.030;2023-05-21T10:19:10;19.25;;;13.57;;
32080;SDS011;18593;51.426;7.030;2023-05-21T10:21:38;23.10;;;15.75;;
32080;SDS011;18593;51.426;7.030;2023-05-21T10:24:06;18.75;;;14.02;;
32080;SDS011;18593;51.426;7.030;2023-05-21T10:26:34;21.42;;;14.00;;
32080;SDS011;18593;51.426;7.030;2023-05-21T10:29:04;24.02;;;16.52;;
32080;SDS011;18593;51.426;7.030;2023-05-21T10:31:33;20.33;;;14.60;;
32080;SDS011;18593;51.426;7.030;2023-05-21T10:34:01;23.48;;;15.30;;
32080;SDS011;18593;51.426;7.030;2023-05-21T10:36:31;23.88;;;16.55;;
32080;SDS011;18593;51.426;7.030;2023-05-21T10:38:59;21.20;;;16.25;;
32080;SDS011;18593;51.426;7.030;2023-05-21T10:41:30;20.67;;;15.07;;
32080;SDS011;18593;51.426;7.030;2023-05-21T10:44:11;19.65;;;15.40;;
32080;SDS011;18593;51.426;7.030;2023-05-21T10:52:44;17.95;;;14.07;;
32080;SDS011;18593;51.426;7.030;2023-05-21T10:55:30;20.98;;;14.95;;
32080;SDS011;18593;51.426;7.030;2023-05-21T10:58:16;19.55;;;14.45;;
32080;SDS011;18593;51.426;7.030;2023-05-21T11:01:12;34.08;;;15.82;;
32080;SDS011;18593;51.426;7.030;2023-05-21T11:03:40;36.42;;;16.65;;
32080;SDS011;18593;51.426;7.030;2023-05-21T11:06:08;54.50;;;17.92;;
32080;SDS011;18593;51.426;7.030;2023-05-21T11:08:35;23.67;;;16.42;;
32080;SDS011;18593;51.426;7.030;2023-05-21T11:11:03;19.55;;;14.50;;
32080;SDS011;18593;51.426;7.030;2023-05-21T11:13:43;23.58;;;16.00;;
32080;SDS011;18593;51.426;7.030;2023-05-21T11:16:14;21.42;;;16.30;;
32080;SDS011;18593;51.426;7.030;2023-05-21T11:18:58;21.05;;;16.45;;
32080;SDS011;18593;51.426;7.030;2023-05-21T11:21:30;22.45;;;15.40;;
32080;SDS011;18593;51.426;7.030;2023-05-21T11:24:00;22.98;;;16.98;;
32080;SDS011;18593;51.426;7.030;2023-05-21T11:29:35;21.88;;;16.80;;
32080;SDS011;18593;51.426;7.030;2023-05-21T11:32:15;23.17;;;16.88;;
32080;SDS011;18593;51.426;7.030;2023-05-21T11:34:45;23.65;;;17.73;;
32080;SDS011;18593;51.426;7.030;2023-05-21T11:37:21;23.88;;;16.25;;
32080;SDS011;18593;51.426;7.030;2023-05-21T11:39:52;24.23;;;17.38;;
32080;SDS011;18593;51.426;7.030;2023-05-21T11:42:26;22.65;;;16.63;;
32080;SDS011;18593;51.426;7.030;2023-05-21T11:44:56;23.20;;;16.00;;
32080;SDS011;18593;51.426;7.030;2023-05-21T11:47:25;19.67;;;14.82;;
32080;SDS011;18593;51.426;7.030;2023-05-21T11:49:54;20.88;;;16.35;;
32080;SDS011;18593;51.426;7.030;2023-05-21T11:52:23;21.13;;;15.55;;
32080;SDS011;18593;51.426;7.030;2023-05-21T11:54:51;25.70;;;17.83;;
32080;SDS011;18593;51.426;7.030;2023-05-21T11:57:21;21.13;;;15.05;;
32080;SDS011;18593;51.426;7.030;2023-05-21T11:59:54;26.25;;;18.88;;
32080;SDS011;18593;51.426;7.030;2023-05-21T12:02:24;21.95;;;17.08;;
32080;SDS011;18593;51.426;7.030;2023-05-21T12:04:56;22.83;;;18.13;;
32080;SDS011;18593;51.426;7.030;2023-05-21T12:07:28;24.38;;;16.65;;
32080;SDS011;18593;51.426;7.030;2023-05-21T12:09:55;21.48;;;16.48;;
32080;SDS011;18593;51.426;7.030;2023-05-21T12:12:24;23.67;;;17.02;;
32080;SDS011;18593;51.426;7.030;2023-05-21T12:14:52;23.65;;;17.13;;
32080;SDS011;18593;51.426;7.030;2023-05-21T12:17:21;27.77;;;18.50;;
32080;SDS011;18593;51.426;7.030;2023-05-21T12:19:52;24.50;;;18.90;;
32080;SDS011;18593;51.426;7.030;2023-05-21T12:22:21;26.95;;;18.67;;
32080;SDS011;18593;51.426;7.030;2023-05-21T12:24:49;22.90;;;16.15;;
32080;SDS011;18593;51.426;7.030;2023-05-21T12:27:17;21.20;;;15.95;;
32080;SDS011;18593;51.426;7.030;2023-05-21T12:29:47;25.17;;;17.77;;
32080;SDS011;18593;51.426;7.030;2023-05-21T12:32:16;21.75;;;18.15;;
32080;SDS011;18593;51.426;7.030;2023-05-21T12:34:46;24.17;;;16.80;;
32080;SDS011;18593;51.426;7.030;2023-05-21T12:37:18;24.02;;;18.40;;
32080;SDS011;18593;51.426;7.030;2023-05-21T12:39:48;24.40;;;18.17;;
32080;SDS011;18593;51.426;7.030;2023-05-21T12:42:22;25.50;;;17.02;;
32080;SDS011;18593;51.426;7.030;2023-05-21T12:44:51;23.30;;;15.52;;
32080;SDS011;18593;51.426;7.030;2023-05-21T12:47:21;25.52;;;17.35;;
32080;SDS011;18593;51.426;7.030;2023-05-21T12:49:52;24.15;;;17.75;;
32080;SDS011;18593;51.426;7.030;2023-05-21T12:52:23;21.92;;;17.17;;
32080;SDS011;18593;51.426;7.030;2023-05-21T12:54:51;26.50;;;18.77;;
32080;SDS011;18593;51.426;7.030;2023-05-21T12:57:20;23.58;;;17.75;;
32080;SDS011;18593;51.426;7.030;2023-05-21T12:59:50;26.33;;;18.48;;
32080;SDS011;18593;51.426;7.030;2023-05-21T13:02:21;23.23;;;16.63;;
32080;SDS011;18593;51.426;7.030;2023-05-21T13:04:53;21.80;;;16.42;;
32080;SDS011;18593;51.426;7.030;2023-05-21T13:07:23;23.90;;;18.08;;
32080;SDS011;18593;51.426;7.030;2023-05-21T13:09:52;22.67;;;17.80;;
32080;SDS011;18593;51.426;7.030;2023-05-21T13:12:20;24.38;;;17.05;;
32080;SDS011;18593;51.426;7.030;2023-05-21T13:14:49;19.38;;;14.93;;
32080;SDS011;18593;51.426;7.030;2023-05-21T13:17:17;21.65;;;16.55;;
32080;SDS011;18593;51.426;7.030;2023-05-21T13:20:03;22.05;;;16.88;;
32080;SDS011;18593;51.426;7.030;2023-05-21T13:22:34;21.15;;;17.15;;
32080;SDS011;18593;51.426;7.030;2023-05-21T13:25:06;24.02;;;15.57;;
32080;SDS011;18593;51.426;7.030;2023-05-21T13:27:35;22.70;;;16.05;;
32080;SDS011;18593;51.426;7.030;2023-05-21T13:30:03;23.35;;;16.27;;
32080;SDS011;18593;51.426;7.030;2023-05-21T13:32:32;21.13;;;16.30;;
32080;SDS011;18593;51.426;7.030;2023-05-21T13:34:59;22.17;;;16.33;;
32080;SDS011;18593;51.426;7.030;2023-05-21T13:37:27;24.25;;;16.58;;
32080;SDS011;18593;51.426;7.030;2023-05-21T13:39:56;24.77;;;16.42;;
32080;SDS011;18593;51.426;7.030;2023-05-21T13:42:23;23.70;;;17.33;;
32080;SDS011;18593;51.426;7.030;2023-05-21T13:44:50;24.67;;;16.85;;
32080;SDS011;18593;51.426;7.030;2023-05-21T13:47:18;20.40;;;16.10;;
32080;SDS011;18593;51.426;7.030;2023-05-21T13:49:45;30.48;;;16.50;;
32080;SDS011;18593;51.426;7.030;2023-05-21T13:52:12;22.23;;;15.95;;
32080;SDS011;18593;51.426;7.030;2023-05-21T13:54:41;21.00;;;16.05;;
32080;SDS011;18593;51.426;7.030;2023-05-21T13:57:10;21.83;;;17.05;;
32080;SDS011;18593;51.426;7.030;2023-05-21T13:59:37;22.25;;;17.67;;
32080;SDS011;18593;51.426;7.030;2023-05-21T14:04:34;22.27;;;16.23;;
32080;SDS011;18593;51.426;7.030;2023-05-21T14:07:01;22.95;;;16.63;;
32080;SDS011;18593;51.426;7.030;2023-05-21T14:09:29;22.00;;;17.08;;
32080;SDS011;18593;51.426;7.030;2023-05-21T14:11:56;25.65;;;17.40;;
32080;SDS011;18593;51.426;7.030;2023-05-21T14:14:25;23.15;;;17.35;;
32080;SDS011;18593;51.426;7.030;2023-05-21T14:16:52;23.67;;;16.27;;
32080;SDS011;18593;51.426;7.030;2023-05-21T14:19:20;22.20;;;16.00;;
32080;SDS011;18593;51.426;7.030;2023-05-21T14:21:50;20.08;;;15.70;;
32080;SDS011;18593;51.426;7.030;2023-05-21T14:24:18;21.67;;;16.10;;
32080;SDS011;18593;51.426;7.030;2023-05-21T14:26:45;20.15;;;15.45;;
32080;SDS011;18593;51.426;7.030;2023-05-21T14:29:12;22.20;;;15.18;;
32080;SDS011;18593;51.426;7.030;2023-05-21T14:31:41;18.83;;;15.10;;
32080;SDS011;18593;51.426;7.030;2023-05-21T14:34:10;21.65;;;14.75;;
32080;SDS011;18593;51.426;7.030;2023-05-21T14:36:37;27.45;;;16.15;;
32080;SDS011;18593;51.426;7.030;2023-05-21T14:39:04;25.00;;;16.92;;
32080;SDS011;18593;51.426;7.030;2023-05-21T14:41:31;22.13;;;16.55;;
32080;SDS011;18593;51.426;7.030;2023-05-21T14:43:59;27.15;;;16.60;;
32080;SDS011;18593;51.426;7.030;2023-05-21T14:46:26;22.15;;;15.63;;
32080;SDS011;18593;51.426;7.030;2023-05-21T14:48:55;24.45;;;17.15;;
32080;SDS011;18593;51.426;7.030;2023-05-21T14:51:23;21.60;;;16.17;;
32080;SDS011;18593;51.426;7.030;2023-05-21T14:53:50;22.48;;;16.25;;